sensor_id;sensor_type;location;lat;lon;timestamp;P1;durP1;ratioP1;P2;durP2;ratioP2
52686;SDS011;38584;49.426;8.396;2023-07-31T00:01:25;10.05;;;2.55;;
52686;SDS011;38584;49.426;8.396;2023-07-31T00:03:50;11.57;;;2.30;;
52686;SDS011;38584;49.426;8.396;2023-07-31T00:06:21;10.30;;;2.67;;
52686;SDS011;38584;49.426;8.396;2023-07-31T00:08:47;9.75;;;2.30;;
52686;SDS011;38584;49.426;8.396;2023-07-31T00:11:12;11.13;;;2.37;;
52686;SDS011;38584;49.426;8.396;2023-07-31T00:13:37;10.77;;;2.30;;
52686;SDS011;38584;49.426;8.396;2023-07-31T00:16:05;10.93;;;2.20;;
52686;SDS011;38584;49.426;8.396;2023-07-31T00:18:30;12.52;;;2.28;;
52686;SDS011;38584;49.426;8.396;2023-07-31T00:20:56;8.03;;;2.20;;
52686;SDS011;38584;49.426;8.396;2023-07-31T00:23:24;6.57;;;2.00;;
52686;SDS011;38584;49.426;8.396;2023-07-31T00:25:55;10.57;;;2.22;;
52686;SDS011;38584;49.426;8.396;2023-07-31T00:28:20;9.13;;;2.30;;
52686;SDS011;38584;49.426;8.396;2023-07-31T00:30:45;8.83;;;2.20;;
52686;SDS011;38584;49.426;8.396;2023-07-31T00:33:10;10.40;;;2.40;;
52686;SDS011;38584;49.426;8.396;2023-07-31T00:35:38;9.57;;;2.10;;
52686;SDS011;38584;49.426;8.396;2023-07-31T00:38:06;8.68;;;2.10;;
52686;SDS011;38584;49.426;8.396;2023-07-31T00:40:35;8.07;;;1.85;;
52686;SDS011;38584;49.426;8.396;2023-07-31T00:43:07;12.32;;;2.72;;
52686;SDS011;38584;49.426;8.396;2023-07-31T00:45:38;8.20;;;2.15;;
52686;SDS011;38584;49.426;8.396;2023-07-31T00:48:04;11.90;;;2.50;;
52686;SDS011;38584;49.426;8.396;2023-07-31T00:50:31;9.68;;;2.00;;
52686;SDS011;38584;49.426;8.396;2023-07-31T00:52:56;11.00;;;2.47;;
52686;SDS011;38584;49.426;8.396;2023-07-31T00:55:27;11.00;;;2.20;;
52686;SDS011;38584;49.426;8.396;2023-07-31T00:57:52;10.57;;;2.30;;
52686;SDS011;38584;49.426;8.396;2023-07-31T01:00:20;10.95;;;2.45;;
52686;SDS011;38584;49.426;8.396;2023-07-31T01:02:45;9.70;;;2.13;;
52686;SDS011;38584;49.426;8.396;2023-07-31T01:05:11;11.93;;;2.50;;
52686;SDS011;38584;49.426;8.396;2023-07-31T01:07:45;10.77;;;2.10;;
52686;SDS011;38584;49.426;8.396;2023-07-31T01:10:23;7.55;;;2.20;;
52686;SDS011;38584;49.426;8.396;2023-07-31T01:12:48;12.40;;;2.70;;
52686;SDS011;38584;49.426;8.396;2023-07-31T01:15:21;9.43;;;2.53;;
52686;SDS011;38584;49.426;8.396;2023-07-31T01:17:46;12.13;;;2.47;;
52686;SDS011;38584;49.426;8.396;2023-07-31T01:20:17;10.27;;;2.43;;
52686;SDS011;38584;49.426;8.396;2023-07-31T01:23:03;9.60;;;2.33;;
52686;SDS011;38584;49.426;8.396;2023-07-31T01:28:14;12.82;;;2.55;;
52686;SDS011;38584;49.426;8.396;2023-07-31T01:30:41;9.25;;;2.40;;
52686;SDS011;38584;49.426;8.396;2023-07-31T01:33:08;10.13;;;2.60;;
52686;SDS011;38584;49.426;8.396;2023-07-31T01:35:37;13.05;;;2.28;;
52686;SDS011;38584;49.426;8.396;2023-07-31T01:38:02;10.70;;;2.40;;
52686;SDS011;38584;49.426;8.396;2023-07-31T01:40:28;12.15;;;2.50;;
52686;SDS011;38584;49.426;8.396;2023-07-31T01:42:55;11.80;;;2.83;;
52686;SDS011;38584;49.426;8.396;2023-07-31T01:45:21;8.10;;;2.17;;
52686;SDS011;38584;49.426;8.396;2023-07-31T01:47:46;13.30;;;2.37;;
52686;SDS011;38584;49.426;8.396;2023-07-31T01:50:21;10.93;;;2.67;;
52686;SDS011;38584;49.426;8.396;2023-07-31T01:52:46;13.75;;;3.00;;
52686;SDS011;38584;49.426;8.396;2023-07-31T01:55:11;10.93;;;2.33;;
52686;SDS011;38584;49.426;8.396;2023-07-31T01:57:36;11.97;;;2.23;;
52686;SDS011;38584;49.426;8.396;2023-07-31T02:00:02;13.65;;;2.63;;
52686;SDS011;38584;49.426;8.396;2023-07-31T02:02:27;8.95;;;2.53;;
52686;SDS011;38584;49.426;8.396;2023-07-31T02:04:52;13.20;;;2.53;;
52686;SDS011;38584;49.426;8.396;2023-07-31T02:07:17;11.00;;;2.33;;
52686;SDS011;38584;49.426;8.396;2023-07-31T02:09:42;10.17;;;2.43;;
52686;SDS011;38584;49.426;8.396;2023-07-31T02:12:08;14.63;;;2.83;;
52686;SDS011;38584;49.426;8.396;2023-07-31T02:14:33;8.77;;;2.37;;
52686;SDS011;38584;49.426;8.396;2023-07-31T02:16:58;10.27;;;2.30;;
52686;SDS011;38584;49.426;8.396;2023-07-31T02:19:24;10.40;;;2.90;;
52686;SDS011;38584;49.426;8.396;2023-07-31T02:21:52;14.43;;;2.63;;
52686;SDS011;38584;49.426;8.396;2023-07-31T02:24:29;11.82;;;2.47;;
52686;SDS011;38584;49.426;8.396;2023-07-31T02:26:54;13.13;;;2.78;;
52686;SDS011;38584;49.426;8.396;2023-07-31T02:29:19;11.67;;;2.83;;
52686;SDS011;38584;49.426;8.396;2023-07-31T02:31:45;11.07;;;2.60;;
52686;SDS011;38584;49.426;8.396;2023-07-31T02:34:10;14.57;;;2.80;;
52686;SDS011;38584;49.426;8.396;2023-07-31T02:36:35;15.73;;;3.43;;
52686;SDS011;38584;49.426;8.396;2023-07-31T02:39:00;11.52;;;2.50;;
52686;SDS011;38584;49.426;8.396;2023-07-31T02:41:28;9.80;;;2.47;;
52686;SDS011;38584;49.426;8.396;2023-07-31T02:43:56;13.00;;;2.47;;
52686;SDS011;38584;49.426;8.396;2023-07-31T02:46:21;11.68;;;2.33;;
52686;SDS011;38584;49.426;8.396;2023-07-31T02:48:49;11.73;;;2.67;;
52686;SDS011;38584;49.426;8.396;2023-07-31T02:51:17;10.88;;;2.42;;
52686;SDS011;38584;49.426;8.396;2023-07-31T02:53:43;9.05;;;2.30;;
52686;SDS011;38584;49.426;8.396;2023-07-31T02:56:08;11.70;;;2.70;;
52686;SDS011;38584;49.426;8.396;2023-07-31T02:58:33;9.57;;;2.10;;
52686;SDS011;38584;49.426;8.396;2023-07-31T03:00:58;8.90;;;2.73;;
52686;SDS011;38584;49.426;8.396;2023-07-31T03:03:24;10.33;;;2.57;;
52686;SDS011;38584;49.426;8.396;2023-07-31T03:05:49;12.17;;;2.63;;
52686;SDS011;38584;49.426;8.396;2023-07-31T03:08:14;10.70;;;2.30;;
52686;SDS011;38584;49.426;8.396;2023-07-31T03:10:42;11.20;;;2.57;;
52686;SDS011;38584;49.426;8.396;2023-07-31T03:13:08;10.65;;;2.63;;
52686;SDS011;38584;49.426;8.396;2023-07-31T03:15:36;14.52;;;2.53;;
52686;SDS011;38584;49.426;8.396;2023-07-31T03:18:07;11.73;;;2.55;;
52686;SDS011;38584;49.426;8.396;2023-07-31T03:20:35;12.43;;;2.55;;
52686;SDS011;38584;49.426;8.396;2023-07-31T03:23:00;11.35;;;2.92;;
52686;SDS011;38584;49.426;8.396;2023-07-31T03:25:28;15.10;;;2.73;;
52686;SDS011;38584;49.426;8.396;2023-07-31T03:27:54;12.00;;;2.78;;
52686;SDS011;38584;49.426;8.396;2023-07-31T03:30:22;8.57;;;2.43;;
52686;SDS011;38584;49.426;8.396;2023-07-31T03:32:47;13.10;;;2.90;;
52686;SDS011;38584;49.426;8.396;2023-07-31T03:35:15;13.13;;;2.77;;
52686;SDS011;38584;49.426;8.396;2023-07-31T03:37:40;8.93;;;2.45;;
52686;SDS011;38584;49.426;8.396;2023-07-31T03:40:06;12.47;;;2.70;;
52686;SDS011;38584;49.426;8.396;2023-07-31T03:42:31;8.68;;;2.38;;
52686;SDS011;38584;49.426;8.396;2023-07-31T03:44:56;12.67;;;2.60;;
52686;SDS011;38584;49.426;8.396;2023-07-31T03:47:21;9.83;;;2.60;;
52686;SDS011;38584;49.426;8.396;2023-07-31T03:49:47;14.68;;;2.83;;
52686;SDS011;38584;49.426;8.396;2023-07-31T03:52:18;10.13;;;2.53;;
52686;SDS011;38584;49.426;8.396;2023-07-31T03:54:49;12.63;;;2.78;;
52686;SDS011;38584;49.426;8.396;2023-07-31T03:57:17;6.57;;;2.05;;
52686;SDS011;38584;49.426;8.396;2023-07-31T03:59:42;14.27;;;2.67;;
52686;SDS011;38584;49.426;8.396;2023-07-31T04:02:11;11.17;;;2.70;;
52686;SDS011;38584;49.426;8.396;2023-07-31T04:04:36;10.10;;;2.70;;
52686;SDS011;38584;49.426;8.396;2023-07-31T04:07:13;11.90;;;2.70;;
52686;SDS011;38584;49.426;8.396;2023-07-31T04:09:41;9.30;;;2.70;;
52686;SDS011;38584;49.426;8.396;2023-07-31T04:12:06;14.40;;;2.70;;
52686;SDS011;38584;49.426;8.396;2023-07-31T04:14:32;11.18;;;3.13;;
52686;SDS011;38584;49.426;8.396;2023-07-31T04:16:57;11.07;;;2.80;;
52686;SDS011;38584;49.426;8.396;2023-07-31T04:19:28;11.10;;;2.60;;
52686;SDS011;38584;49.426;8.396;2023-07-31T04:21:53;11.30;;;2.75;;
52686;SDS011;38584;49.426;8.396;2023-07-31T04:24:18;10.43;;;2.70;;
52686;SDS011;38584;49.426;8.396;2023-07-31T04:26:49;8.32;;;2.40;;
52686;SDS011;38584;49.426;8.396;2023-07-31T04:29:14;12.10;;;2.50;;
52686;SDS011;38584;49.426;8.396;2023-07-31T04:31:44;12.40;;;2.90;;
52686;SDS011;38584;49.426;8.396;2023-07-31T04:34:10;11.00;;;2.60;;
52686;SDS011;38584;49.426;8.396;2023-07-31T04:36:36;9.30;;;2.50;;
52686;SDS011;38584;49.426;8.396;2023-07-31T04:39:01;10.20;;;2.77;;
52686;SDS011;38584;49.426;8.396;2023-07-31T04:41:29;12.07;;;2.58;;
52686;SDS011;38584;49.426;8.396;2023-07-31T04:43:55;12.40;;;2.53;;
52686;SDS011;38584;49.426;8.396;2023-07-31T04:46:20;11.50;;;2.23;;
52686;SDS011;38584;49.426;8.396;2023-07-31T04:48:45;12.82;;;2.55;;
52686;SDS011;38584;49.426;8.396;2023-07-31T04:51:10;11.80;;;2.67;;
52686;SDS011;38584;49.426;8.396;2023-07-31T04:53:36;10.95;;;2.80;;
52686;SDS011;38584;49.426;8.396;2023-07-31T04:56:01;9.65;;;2.60;;
52686;SDS011;38584;49.426;8.396;2023-07-31T04:58:26;10.90;;;2.97;;
52686;SDS011;38584;49.426;8.396;2023-07-31T05:00:51;11.03;;;2.67;;
52686;SDS011;38584;49.426;8.396;2023-07-31T05:03:16;9.23;;;2.57;;
52686;SDS011;38584;49.426;8.396;2023-07-31T05:05:42;12.73;;;2.70;;
52686;SDS011;38584;49.426;8.396;2023-07-31T05:08:13;12.00;;;2.97;;
52686;SDS011;38584;49.426;8.396;2023-07-31T05:10:38;10.00;;;2.88;;
52686;SDS011;38584;49.426;8.396;2023-07-31T05:13:03;16.07;;;2.93;;
52686;SDS011;38584;49.426;8.396;2023-07-31T05:15:31;12.38;;;2.70;;
52686;SDS011;38584;49.426;8.396;2023-07-31T05:17:57;9.98;;;2.65;;
52686;SDS011;38584;49.426;8.396;2023-07-31T05:20:22;10.40;;;2.70;;
52686;SDS011;38584;49.426;8.396;2023-07-31T05:22:53;13.03;;;3.10;;
52686;SDS011;38584;49.426;8.396;2023-07-31T05:25:18;15.20;;;2.72;;
52686;SDS011;38584;49.426;8.396;2023-07-31T05:27:46;17.60;;;2.77;;
52686;SDS011;38584;49.426;8.396;2023-07-31T05:30:14;13.35;;;2.92;;
52686;SDS011;38584;49.426;8.396;2023-07-31T05:32:39;8.55;;;2.70;;
52686;SDS011;38584;49.426;8.396;2023-07-31T05:35:05;11.13;;;3.00;;
52686;SDS011;38584;49.426;8.396;2023-07-31T05:37:30;10.48;;;2.85;;
52686;SDS011;38584;49.426;8.396;2023-07-31T05:39:55;12.10;;;3.00;;
52686;SDS011;38584;49.426;8.396;2023-07-31T05:42:23;11.40;;;2.75;;
52686;SDS011;38584;49.426;8.396;2023-07-31T05:44:51;15.23;;;3.10;;
52686;SDS011;38584;49.426;8.396;2023-07-31T05:47:16;10.73;;;2.50;;
52686;SDS011;38584;49.426;8.396;2023-07-31T05:49:41;12.40;;;2.70;;
52686;SDS011;38584;49.426;8.396;2023-07-31T05:52:07;12.87;;;3.20;;
52686;SDS011;38584;49.426;8.396;2023-07-31T05:54:32;12.02;;;2.90;;
52686;SDS011;38584;49.426;8.396;2023-07-31T05:56:58;11.32;;;3.00;;
52686;SDS011;38584;49.426;8.396;2023-07-31T05:59:23;8.60;;;2.70;;
52686;SDS011;38584;49.426;8.396;2023-07-31T06:01:52;12.40;;;3.00;;
52686;SDS011;38584;49.426;8.396;2023-07-31T06:04:20;9.88;;;2.70;;
52686;SDS011;38584;49.426;8.396;2023-07-31T06:06:45;14.90;;;2.63;;
52686;SDS011;38584;49.426;8.396;2023-07-31T06:09:10;11.43;;;2.65;;
52686;SDS011;38584;49.426;8.396;2023-07-31T06:11:36;13.27;;;2.80;;
52686;SDS011;38584;49.426;8.396;2023-07-31T06:14:02;12.20;;;2.50;;
52686;SDS011;38584;49.426;8.396;2023-07-31T06:16:39;11.17;;;3.00;;
52686;SDS011;38584;49.426;8.396;2023-07-31T06:19:04;12.35;;;2.92;;
52686;SDS011;38584;49.426;8.396;2023-07-31T06:21:29;9.23;;;2.57;;
52686;SDS011;38584;49.426;8.396;2023-07-31T06:23:55;12.82;;;3.03;;
52686;SDS011;38584;49.426;8.396;2023-07-31T06:26:23;9.85;;;2.83;;
52686;SDS011;38584;49.426;8.396;2023-07-31T06:28:48;10.57;;;2.80;;
52686;SDS011;38584;49.426;8.396;2023-07-31T06:31:13;10.73;;;2.70;;
52686;SDS011;38584;49.426;8.396;2023-07-31T06:33:39;10.90;;;2.63;;
52686;SDS011;38584;49.426;8.396;2023-07-31T06:36:04;10.63;;;2.90;;
52686;SDS011;38584;49.426;8.396;2023-07-31T06:38:29;12.02;;;2.85;;
52686;SDS011;38584;49.426;8.396;2023-07-31T06:40:54;12.33;;;3.00;;
52686;SDS011;38584;49.426;8.396;2023-07-31T06:43:22;12.07;;;3.30;;
52686;SDS011;38584;49.426;8.396;2023-07-31T06:45:47;13.38;;;2.85;;
52686;SDS011;38584;49.426;8.396;2023-07-31T06:48:19;10.23;;;2.80;;
52686;SDS011;38584;49.426;8.396;2023-07-31T06:50:44;16.20;;;3.03;;
52686;SDS011;38584;49.426;8.396;2023-07-31T06:53:12;11.13;;;2.80;;
52686;SDS011;38584;49.426;8.396;2023-07-31T06:55:40;10.43;;;2.83;;
52686;SDS011;38584;49.426;8.396;2023-07-31T06:58:11;10.18;;;2.70;;
52686;SDS011;38584;49.426;8.396;2023-07-31T07:00:36;16.20;;;3.05;;
52686;SDS011;38584;49.426;8.396;2023-07-31T07:03:01;8.43;;;2.40;;
52686;SDS011;38584;49.426;8.396;2023-07-31T07:05:29;12.00;;;2.93;;
52686;SDS011;38584;49.426;8.396;2023-07-31T07:07:54;11.07;;;2.83;;
52686;SDS011;38584;49.426;8.396;2023-07-31T07:10:19;13.73;;;3.00;;
52686;SDS011;38584;49.426;8.396;2023-07-31T07:12:45;9.63;;;2.80;;
52686;SDS011;38584;49.426;8.396;2023-07-31T07:15:10;9.90;;;2.60;;
52686;SDS011;38584;49.426;8.396;2023-07-31T07:17:45;9.32;;;3.00;;
52686;SDS011;38584;49.426;8.396;2023-07-31T07:20:10;10.13;;;2.85;;
52686;SDS011;38584;49.426;8.396;2023-07-31T07:22:35;14.95;;;3.20;;
52686;SDS011;38584;49.426;8.396;2023-07-31T07:25:00;13.07;;;2.65;;
52686;SDS011;38584;49.426;8.396;2023-07-31T07:27:25;11.30;;;2.50;;
52686;SDS011;38584;49.426;8.396;2023-07-31T07:29:51;11.48;;;3.28;;
52686;SDS011;38584;49.426;8.396;2023-07-31T07:32:22;10.13;;;2.55;;
52686;SDS011;38584;49.426;8.396;2023-07-31T07:34:47;11.68;;;3.03;;
52686;SDS011;38584;49.426;8.396;2023-07-31T07:37:16;8.27;;;2.80;;
52686;SDS011;38584;49.426;8.396;2023-07-31T07:39:47;12.65;;;2.70;;
52686;SDS011;38584;49.426;8.396;2023-07-31T07:42:12;12.50;;;3.00;;
52686;SDS011;38584;49.426;8.396;2023-07-31T07:44:38;12.80;;;2.63;;
52686;SDS011;38584;49.426;8.396;2023-07-31T07:47:03;10.70;;;3.03;;
52686;SDS011;38584;49.426;8.396;2023-07-31T07:49:30;9.88;;;2.70;;
52686;SDS011;38584;49.426;8.396;2023-07-31T07:51:56;12.85;;;3.00;;
52686;SDS011;38584;49.426;8.396;2023-07-31T07:54:24;12.70;;;3.17;;
52686;SDS011;38584;49.426;8.396;2023-07-31T07:56:49;8.88;;;2.72;;
52686;SDS011;38584;49.426;8.396;2023-07-31T07:59:27;9.93;;;2.80;;
52686;SDS011;38584;49.426;8.396;2023-07-31T08:01:52;12.63;;;3.20;;
52686;SDS011;38584;49.426;8.396;2023-07-31T08:04:17;13.87;;;3.70;;
52686;SDS011;38584;49.426;8.396;2023-07-31T08:06:42;10.50;;;2.53;;
52686;SDS011;38584;49.426;8.396;2023-07-31T08:09:10;8.90;;;2.80;;
52686;SDS011;38584;49.426;8.396;2023-07-31T08:11:41;8.90;;;2.83;;
52686;SDS011;38584;49.426;8.396;2023-07-31T08:14:06;11.25;;;3.33;;
52686;SDS011;38584;49.426;8.396;2023-07-31T08:16:32;11.90;;;3.03;;
52686;SDS011;38584;49.426;8.396;2023-07-31T08:18:57;13.73;;;2.97;;
52686;SDS011;38584;49.426;8.396;2023-07-31T08:21:22;11.67;;;2.97;;
52686;SDS011;38584;49.426;8.396;2023-07-31T08:23:47;12.40;;;3.00;;
52686;SDS011;38584;49.426;8.396;2023-07-31T08:26:16;12.73;;;3.10;;
52686;SDS011;38584;49.426;8.396;2023-07-31T08:28:44;11.48;;;2.97;;
52686;SDS011;38584;49.426;8.396;2023-07-31T08:31:12;11.65;;;2.75;;
52686;SDS011;38584;49.426;8.396;2023-07-31T08:33:38;11.93;;;2.67;;
52686;SDS011;38584;49.426;8.396;2023-07-31T08:36:09;15.18;;;3.13;;
52686;SDS011;38584;49.426;8.396;2023-07-31T08:38:34;13.00;;;3.08;;
52686;SDS011;38584;49.426;8.396;2023-07-31T08:41:00;15.07;;;3.20;;
52686;SDS011;38584;49.426;8.396;2023-07-31T08:43:25;10.02;;;2.67;;
52686;SDS011;38584;49.426;8.396;2023-07-31T08:45:51;12.98;;;2.80;;
52686;SDS011;38584;49.426;8.396;2023-07-31T08:48:16;14.48;;;2.72;;
52686;SDS011;38584;49.426;8.396;2023-07-31T08:50:42;12.20;;;2.95;;
52686;SDS011;38584;49.426;8.396;2023-07-31T08:53:07;7.70;;;2.63;;
52686;SDS011;38584;49.426;8.396;2023-07-31T08:55:32;12.00;;;3.10;;
52686;SDS011;38584;49.426;8.396;2023-07-31T08:57:57;13.10;;;3.47;;
52686;SDS011;38584;49.426;8.396;2023-07-31T09:00:23;13.35;;;3.47;;
52686;SDS011;38584;49.426;8.396;2023-07-31T09:03:00;12.27;;;2.92;;
52686;SDS011;38584;49.426;8.396;2023-07-31T09:05:28;11.35;;;3.10;;
52686;SDS011;38584;49.426;8.396;2023-07-31T09:07:56;11.77;;;2.75;;
52686;SDS011;38584;49.426;8.396;2023-07-31T09:10:22;11.55;;;3.40;;
52686;SDS011;38584;49.426;8.396;2023-07-31T09:12:47;11.30;;;3.10;;
52686;SDS011;38584;49.426;8.396;2023-07-31T09:15:13;11.85;;;2.88;;
52686;SDS011;38584;49.426;8.396;2023-07-31T09:17:38;9.90;;;3.03;;
52686;SDS011;38584;49.426;8.396;2023-07-31T09:20:19;11.93;;;3.15;;
52686;SDS011;38584;49.426;8.396;2023-07-31T09:22:46;12.38;;;3.20;;
52686;SDS011;38584;49.426;8.396;2023-07-31T09:25:25;14.82;;;3.17;;
52686;SDS011;38584;49.426;8.396;2023-07-31T09:30:19;19.20;;;3.38;;
52686;SDS011;38584;49.426;8.396;2023-07-31T09:32:44;11.20;;;3.30;;
52686;SDS011;38584;49.426;8.396;2023-07-31T09:35:29;12.75;;;3.33;;
52686;SDS011;38584;49.426;8.396;2023-07-31T09:37:58;14.88;;;3.67;;
52686;SDS011;38584;49.426;8.396;2023-07-31T09:40:31;11.52;;;3.00;;
52686;SDS011;38584;49.426;8.396;2023-07-31T09:43:03;10.73;;;2.97;;
52686;SDS011;38584;49.426;8.396;2023-07-31T09:45:28;15.70;;;3.03;;
52686;SDS011;38584;49.426;8.396;2023-07-31T09:47:56;16.00;;;3.75;;
52686;SDS011;38584;49.426;8.396;2023-07-31T09:50:23;11.45;;;3.30;;
52686;SDS011;38584;49.426;8.396;2023-07-31T09:52:48;15.98;;;3.00;;
52686;SDS011;38584;49.426;8.396;2023-07-31T09:55:13;11.15;;;3.38;;
52686;SDS011;38584;49.426;8.396;2023-07-31T09:57:43;14.20;;;3.20;;
52686;SDS011;38584;49.426;8.396;2023-07-31T10:00:09;13.48;;;3.20;;
52686;SDS011;38584;49.426;8.396;2023-07-31T10:02:34;13.02;;;3.50;;
52686;SDS011;38584;49.426;8.396;2023-07-31T10:05:03;14.30;;;3.92;;
52686;SDS011;38584;49.426;8.396;2023-07-31T10:07:29;10.32;;;3.08;;
52686;SDS011;38584;49.426;8.396;2023-07-31T10:09:55;13.70;;;3.53;;
52686;SDS011;38584;49.426;8.396;2023-07-31T10:12:25;12.98;;;3.30;;
52686;SDS011;38584;49.426;8.396;2023-07-31T10:14:51;13.40;;;3.55;;
52686;SDS011;38584;49.426;8.396;2023-07-31T10:17:17;14.38;;;3.40;;
52686;SDS011;38584;49.426;8.396;2023-07-31T10:19:43;9.60;;;3.20;;
52686;SDS011;38584;49.426;8.396;2023-07-31T10:22:12;10.43;;;3.20;;
52686;SDS011;38584;49.426;8.396;2023-07-31T10:24:38;14.35;;;3.38;;
52686;SDS011;38584;49.426;8.396;2023-07-31T10:27:10;15.05;;;4.05;;
52686;SDS011;38584;49.426;8.396;2023-07-31T10:29:38;12.43;;;2.97;;
52686;SDS011;38584;49.426;8.396;2023-07-31T10:32:04;12.57;;;3.20;;
52686;SDS011;38584;49.426;8.396;2023-07-31T10:34:31;15.55;;;3.20;;
52686;SDS011;38584;49.426;8.396;2023-07-31T10:39:44;17.58;;;3.70;;
52686;SDS011;38584;49.426;8.396;2023-07-31T10:42:19;15.13;;;3.28;;
52686;SDS011;38584;49.426;8.396;2023-07-31T10:44:48;14.05;;;3.80;;
52686;SDS011;38584;49.426;8.396;2023-07-31T10:47:17;19.17;;;3.53;;
52686;SDS011;38584;49.426;8.396;2023-07-31T10:49:46;16.35;;;3.50;;
52686;SDS011;38584;49.426;8.396;2023-07-31T10:52:12;13.07;;;3.20;;
52686;SDS011;38584;49.426;8.396;2023-07-31T10:54:37;15.02;;;3.50;;
52686;SDS011;38584;49.426;8.396;2023-07-31T10:57:05;12.98;;;3.38;;
52686;SDS011;38584;49.426;8.396;2023-07-31T10:59:45;13.38;;;3.10;;
52686;SDS011;38584;49.426;8.396;2023-07-31T11:02:23;12.17;;;3.70;;
52686;SDS011;38584;49.426;8.396;2023-07-31T11:05:05;11.57;;;3.47;;
52686;SDS011;38584;49.426;8.396;2023-07-31T11:07:45;13.15;;;3.20;;
52686;SDS011;38584;49.426;8.396;2023-07-31T11:10:20;17.50;;;3.50;;
52686;SDS011;38584;49.426;8.396;2023-07-31T11:12:47;17.45;;;3.22;;
52686;SDS011;38584;49.426;8.396;2023-07-31T11:15:18;12.23;;;3.50;;
52686;SDS011;38584;49.426;8.396;2023-07-31T11:17:44;12.38;;;3.10;;
52686;SDS011;38584;49.426;8.396;2023-07-31T11:20:21;12.47;;;3.23;;
52686;SDS011;38584;49.426;8.396;2023-07-31T11:22:49;12.52;;;3.20;;
52686;SDS011;38584;49.426;8.396;2023-07-31T11:25:14;10.88;;;3.20;;
52686;SDS011;38584;49.426;8.396;2023-07-31T11:27:40;15.20;;;3.53;;
52686;SDS011;38584;49.426;8.396;2023-07-31T11:30:11;16.65;;;3.60;;
52686;SDS011;38584;49.426;8.396;2023-07-31T11:32:39;11.88;;;3.40;;
52686;SDS011;38584;49.426;8.396;2023-07-31T11:35:05;13.88;;;3.30;;
52686;SDS011;38584;49.426;8.396;2023-07-31T11:37:46;15.68;;;3.60;;
52686;SDS011;38584;49.426;8.396;2023-07-31T11:40:11;14.25;;;3.45;;
52686;SDS011;38584;49.426;8.396;2023-07-31T11:42:55;12.80;;;3.50;;
52686;SDS011;38584;49.426;8.396;2023-07-31T11:45:24;12.32;;;3.13;;
52686;SDS011;38584;49.426;8.396;2023-07-31T11:47:50;9.38;;;3.05;;
52686;SDS011;38584;49.426;8.396;2023-07-31T11:50:15;15.80;;;3.27;;
52686;SDS011;38584;49.426;8.396;2023-07-31T11:52:41;13.00;;;3.63;;
52686;SDS011;38584;49.426;8.396;2023-07-31T11:55:07;11.02;;;3.40;;
52686;SDS011;38584;49.426;8.396;2023-07-31T11:57:34;12.98;;;3.15;;
52686;SDS011;38584;49.426;8.396;2023-07-31T12:00:03;12.07;;;3.35;;
52686;SDS011;38584;49.426;8.396;2023-07-31T12:02:29;10.00;;;3.20;;
52686;SDS011;38584;49.426;8.396;2023-07-31T12:04:57;12.38;;;3.63;;
52686;SDS011;38584;49.426;8.396;2023-07-31T12:07:25;11.77;;;2.95;;
52686;SDS011;38584;49.426;8.396;2023-07-31T12:09:56;13.55;;;3.65;;
52686;SDS011;38584;49.426;8.396;2023-07-31T12:12:25;11.93;;;3.10;;
52686;SDS011;38584;49.426;8.396;2023-07-31T12:14:50;14.23;;;3.72;;
52686;SDS011;38584;49.426;8.396;2023-07-31T12:17:19;10.50;;;2.88;;
52686;SDS011;38584;49.426;8.396;2023-07-31T12:19:48;9.63;;;3.00;;
52686;SDS011;38584;49.426;8.396;2023-07-31T12:22:14;12.35;;;3.33;;
52686;SDS011;38584;49.426;8.396;2023-07-31T12:24:43;12.27;;;3.35;;
52686;SDS011;38584;49.426;8.396;2023-07-31T12:27:14;11.10;;;3.30;;
52686;SDS011;38584;49.426;8.396;2023-07-31T12:29:52;11.20;;;3.63;;
52686;SDS011;38584;49.426;8.396;2023-07-31T12:34:45;15.00;;;3.70;;
52686;SDS011;38584;49.426;8.396;2023-07-31T12:37:10;11.93;;;3.40;;
52686;SDS011;38584;49.426;8.396;2023-07-31T12:39:35;10.52;;;2.97;;
52686;SDS011;38584;49.426;8.396;2023-07-31T12:42:00;11.23;;;3.60;;
52686;SDS011;38584;49.426;8.396;2023-07-31T12:44:29;13.43;;;3.57;;
52686;SDS011;38584;49.426;8.396;2023-07-31T12:46:57;10.07;;;3.10;;
52686;SDS011;38584;49.426;8.396;2023-07-31T12:49:25;12.55;;;3.30;;
52686;SDS011;38584;49.426;8.396;2023-07-31T12:51:53;12.88;;;3.40;;
52686;SDS011;38584;49.426;8.396;2023-07-31T12:54:22;9.30;;;2.90;;
52686;SDS011;38584;49.426;8.396;2023-07-31T12:56:47;11.63;;;3.10;;
52686;SDS011;38584;49.426;8.396;2023-07-31T12:59:12;11.55;;;3.20;;
52686;SDS011;38584;49.426;8.396;2023-07-31T13:01:40;8.43;;;2.80;;
52686;SDS011;38584;49.426;8.396;2023-07-31T13:04:05;9.20;;;3.03;;
52686;SDS011;38584;49.426;8.396;2023-07-31T13:06:32;13.32;;;3.50;;
52686;SDS011;38584;49.426;8.396;2023-07-31T13:08:57;8.07;;;2.77;;
52686;SDS011;38584;49.426;8.396;2023-07-31T13:11:25;12.13;;;3.05;;
52686;SDS011;38584;49.426;8.396;2023-07-31T13:13:50;11.80;;;2.95;;
52686;SDS011;38584;49.426;8.396;2023-07-31T13:16:16;11.60;;;3.27;;
52686;SDS011;38584;49.426;8.396;2023-07-31T13:18:41;11.63;;;2.97;;
52686;SDS011;38584;49.426;8.396;2023-07-31T13:21:06;9.03;;;2.90;;
52686;SDS011;38584;49.426;8.396;2023-07-31T13:23:31;11.03;;;3.10;;
52686;SDS011;38584;49.426;8.396;2023-07-31T13:25:56;12.50;;;3.05;;
52686;SDS011;38584;49.426;8.396;2023-07-31T13:28:27;9.20;;;2.80;;
52686;SDS011;38584;49.426;8.396;2023-07-31T13:30:52;10.30;;;3.10;;
52686;SDS011;38584;49.426;8.396;2023-07-31T13:33:18;9.63;;;3.00;;
52686;SDS011;38584;49.426;8.396;2023-07-31T13:35:43;11.47;;;3.40;;
52686;SDS011;38584;49.426;8.396;2023-07-31T13:38:08;11.60;;;3.10;;
52686;SDS011;38584;49.426;8.396;2023-07-31T13:40:40;13.05;;;3.20;;
52686;SDS011;38584;49.426;8.396;2023-07-31T13:43:08;11.85;;;3.40;;
52686;SDS011;38584;49.426;8.396;2023-07-31T13:45:36;10.88;;;3.58;;
52686;SDS011;38584;49.426;8.396;2023-07-31T13:48:04;12.25;;;3.20;;
52686;SDS011;38584;49.426;8.396;2023-07-31T13:50:29;11.80;;;3.08;;
52686;SDS011;38584;49.426;8.396;2023-07-31T13:52:57;12.85;;;3.25;;
52686;SDS011;38584;49.426;8.396;2023-07-31T13:55:22;9.20;;;2.90;;
52686;SDS011;38584;49.426;8.396;2023-07-31T13:57:48;11.20;;;3.57;;
52686;SDS011;38584;49.426;8.396;2023-07-31T14:00:16;12.90;;;3.38;;
52686;SDS011;38584;49.426;8.396;2023-07-31T14:02:41;12.48;;;3.30;;
52686;SDS011;38584;49.426;8.396;2023-07-31T14:05:07;10.82;;;3.08;;
52686;SDS011;38584;49.426;8.396;2023-07-31T14:07:34;11.73;;;3.30;;
52686;SDS011;38584;49.426;8.396;2023-07-31T14:09:59;15.70;;;3.47;;
52686;SDS011;38584;49.426;8.396;2023-07-31T14:12:24;11.43;;;3.30;;
52686;SDS011;38584;49.426;8.396;2023-07-31T14:14:50;9.47;;;2.97;;
52686;SDS011;38584;49.426;8.396;2023-07-31T14:17:15;11.60;;;3.20;;
52686;SDS011;38584;49.426;8.396;2023-07-31T14:19:44;11.90;;;3.17;;
52686;SDS011;38584;49.426;8.396;2023-07-31T14:22:12;13.45;;;3.70;;
52686;SDS011;38584;49.426;8.396;2023-07-31T14:24:40;12.55;;;3.35;;
52686;SDS011;38584;49.426;8.396;2023-07-31T14:27:05;12.38;;;3.28;;
52686;SDS011;38584;49.426;8.396;2023-07-31T14:29:30;13.80;;;3.40;;
52686;SDS011;38584;49.426;8.396;2023-07-31T14:31:58;13.93;;;3.60;;
52686;SDS011;38584;49.426;8.396;2023-07-31T14:34:24;9.43;;;3.30;;
52686;SDS011;38584;49.426;8.396;2023-07-31T14:36:50;12.05;;;3.58;;
52686;SDS011;38584;49.426;8.396;2023-07-31T14:39:21;12.10;;;3.40;;
52686;SDS011;38584;49.426;8.396;2023-07-31T14:41:46;11.23;;;3.28;;
52686;SDS011;38584;49.426;8.396;2023-07-31T14:44:15;9.57;;;3.10;;
52686;SDS011;38584;49.426;8.396;2023-07-31T14:46:46;12.05;;;3.25;;